createdAt,value
2023-04-12T00:00:58.354Z,3.85
2023-04-12T00:03:26.946Z,2.38
2023-04-12T00:05:55.489Z,2.00
2023-04-12T00:08:33.290Z,4.43
2023-04-12T00:11:02.474Z,2.65
2023-04-12T00:13:30.996Z,2.47
2023-04-12T00:15:59.609Z,2.53
2023-04-12T00:18:27.614Z,3.85
2023-04-12T00:20:56.915Z,4.78
2023-04-12T00:23:25.192Z,3.78
2023-04-12T00:25:53.348Z,4.47
2023-04-12T00:28:21.805Z,5.70
2023-04-12T00:30:51.268Z,4.18
2023-04-12T00:33:19.525Z,2.70
2023-04-12T00:35:47.813Z,2.13
2023-04-12T00:38:17.638Z,2.30
2023-04-12T00:40:45.782Z,2.67
2023-04-12T00:43:19.000Z,3.47
2023-04-12T00:45:48.008Z,5.57
2023-04-12T00:48:16.484Z,5.68
2023-04-12T00:50:48.052Z,3.25
2023-04-12T00:53:17.958Z,2.92
2023-04-12T00:55:46.794Z,2.47
2023-04-12T00:58:16.290Z,3.78
2023-04-12T01:00:50.498Z,4.45
2023-04-12T01:03:28.117Z,3.30
2023-04-12T01:06:14.237Z,2.88
2023-04-12T01:09:11.409Z,2.95
2023-04-12T01:11:48.607Z,4.53
2023-04-12T01:14:45.070Z,4.65
2023-04-12T01:17:21.183Z,5.38
2023-04-12T01:19:58.069Z,4.05
2023-04-12T01:23:15.656Z,4.28
2023-04-12T01:26:16.150Z,2.25
2023-04-12T01:28:45.102Z,3.58
2023-04-12T01:31:14.333Z,2.33
2023-04-12T01:33:44.699Z,2.65
2023-04-12T01:36:16.364Z,2.40
2023-04-12T01:38:45.097Z,2.08
2023-04-12T01:41:13.524Z,5.30
2023-04-12T01:43:45.634Z,2.72
2023-04-12T01:46:19.256Z,4.43
2023-04-12T01:48:51.121Z,2.47
2023-04-12T01:51:42.473Z,3.75
2023-04-12T01:54:13.725Z,3.20
2023-04-12T01:56:45.339Z,2.67
2023-04-12T01:59:17.474Z,2.75
2023-04-12T02:01:47.535Z,2.60
2023-04-12T02:04:17.316Z,7.05
2023-04-12T02:06:46.562Z,5.00
2023-04-12T02:09:15.003Z,2.33
2023-04-12T02:11:46.616Z,5.18
2023-04-12T02:14:15.659Z,2.42
2023-04-12T02:16:46.154Z,2.83
2023-04-12T02:19:14.982Z,4.30
2023-04-12T02:21:45.816Z,2.88
2023-04-12T02:24:14.119Z,3.90
2023-04-12T02:26:43.561Z,2.95
2023-04-12T02:29:12.390Z,2.50
2023-04-12T02:31:41.703Z,2.63
2023-04-12T02:34:13.669Z,3.78
2023-04-12T02:36:50.713Z,3.60
2023-04-12T02:41:50.068Z,3.33
2023-04-12T02:44:18.650Z,6.10
2023-04-12T02:47:09.244Z,2.67
2023-04-12T02:49:41.153Z,3.20
2023-04-12T02:52:09.678Z,2.13
2023-04-12T02:54:45.445Z,5.15
2023-04-12T02:57:17.685Z,4.57
2023-04-12T02:59:49.042Z,1.63
2023-04-12T03:02:33.226Z,2.33
2023-04-12T03:05:05.335Z,2.40
2023-04-12T03:07:40.460Z,3.78
2023-04-12T03:10:11.898Z,2.33
2023-04-12T03:12:45.118Z,2.83
2023-04-12T03:15:18.760Z,4.00
2023-04-12T03:17:49.553Z,4.20
2023-04-12T03:20:20.621Z,3.10
2023-04-12T03:23:09.935Z,6.15
2023-04-12T03:25:43.305Z,2.92
2023-04-12T03:28:28.153Z,2.78
2023-04-12T03:30:57.018Z,2.38
2023-04-12T03:33:30.481Z,2.20
2023-04-12T03:36:03.528Z,3.88
2023-04-12T03:38:32.614Z,2.75
2023-04-12T03:41:01.308Z,2.28
2023-04-12T03:43:37.742Z,2.55
2023-04-12T03:46:16.044Z,4.10
2023-04-12T03:48:45.925Z,5.18
2023-04-12T03:51:15.654Z,7.40
2023-04-12T03:53:45.855Z,3.35
2023-04-12T03:56:16.903Z,2.80
2023-04-12T03:58:50.008Z,3.10
2023-04-12T04:05:30.041Z,4.13
2023-04-12T04:08:02.821Z,3.95
2023-04-12T04:10:38.893Z,2.42
2023-04-12T04:13:07.092Z,5.50
2023-04-12T04:15:35.619Z,4.32
2023-04-12T04:18:05.090Z,2.90
2023-04-12T04:20:33.229Z,3.22
2023-04-12T04:23:01.183Z,3.38
2023-04-12T04:25:33.809Z,4.70
2023-04-12T04:28:08.184Z,5.88
2023-04-12T04:30:39.208Z,2.85
2023-04-12T04:33:10.810Z,4.45
2023-04-12T04:35:41.073Z,2.47
2023-04-12T04:38:27.719Z,5.32
2023-04-12T04:41:04.791Z,4.97
2023-04-12T04:46:22.509Z,3.25
2023-04-12T04:48:52.073Z,4.88
2023-04-12T04:51:20.534Z,5.47
2023-04-12T04:53:49.324Z,3.92
2023-04-12T04:56:19.260Z,3.05
2023-04-12T04:58:53.992Z,3.45
2023-04-12T05:01:28.870Z,5.38
2023-04-12T05:04:03.196Z,2.88
2023-04-12T05:06:31.629Z,7.05
2023-04-12T05:09:02.051Z,3.65
2023-04-12T05:11:33.970Z,4.05
2023-04-12T05:14:04.437Z,4.50
2023-04-12T05:16:32.557Z,5.78
2023-04-12T05:19:00.731Z,3.42
2023-04-12T05:21:29.330Z,2.72
2023-04-12T05:23:57.768Z,2.78
2023-04-12T05:26:26.268Z,3.20
2023-04-12T05:28:57.871Z,3.22
2023-04-12T05:31:26.239Z,3.90
2023-04-12T05:33:54.987Z,4.03
2023-04-12T05:36:28.486Z,4.07
2023-04-12T05:38:57.140Z,3.85
2023-04-12T05:41:25.362Z,3.10
2023-04-12T05:43:53.452Z,4.18
2023-04-12T05:46:21.942Z,3.70
2023-04-12T05:48:51.708Z,3.20
2023-04-12T05:51:27.780Z,5.80
2023-04-12T05:54:06.448Z,2.95
2023-04-12T05:56:36.398Z,5.65
2023-04-12T05:59:05.473Z,7.63
2023-04-12T06:01:33.611Z,4.15
2023-04-12T06:04:03.007Z,3.33
2023-04-12T06:06:31.805Z,3.38
2023-04-12T06:09:01.343Z,2.92
2023-04-12T06:11:30.102Z,6.35
2023-04-12T06:13:59.682Z,4.32
2023-04-12T06:16:28.151Z,7.03
2023-04-12T06:18:56.574Z,5.63
2023-04-12T06:21:25.809Z,3.17
2023-04-12T06:23:53.604Z,3.75
2023-04-12T06:26:21.779Z,5.25
2023-04-12T06:28:50.224Z,3.05
2023-04-12T06:31:18.302Z,3.55
2023-04-12T06:33:47.964Z,4.35
2023-04-12T06:36:16.548Z,3.72
2023-04-12T06:38:45.179Z,4.15
2023-04-12T06:41:13.109Z,4.35
2023-04-12T06:43:40.996Z,4.10
2023-04-12T06:46:09.389Z,3.35
2023-04-12T06:48:37.595Z,4.00
2023-04-12T06:51:05.757Z,4.72
2023-04-12T06:53:35.335Z,3.58
2023-04-12T06:56:07.109Z,5.35
2023-04-12T06:58:35.208Z,4.60
2023-04-12T07:01:07.813Z,6.55
2023-04-12T07:03:36.244Z,5.15
2023-04-12T07:06:17.262Z,3.45
2023-04-12T07:08:52.972Z,5.22
2023-04-12T07:11:24.169Z,5.18
2023-04-12T07:13:52.483Z,3.47
2023-04-12T07:16:20.728Z,4.00
2023-04-12T07:18:51.425Z,3.78
2023-04-12T07:21:19.536Z,4.60
2023-04-12T07:23:51.373Z,4.78
2023-04-12T07:26:19.856Z,2.92
2023-04-12T07:28:48.029Z,3.10
2023-04-12T07:31:16.529Z,5.82
2023-04-12T07:33:44.852Z,3.47
2023-04-12T07:36:13.246Z,3.03
2023-04-12T07:38:41.584Z,3.90
2023-04-12T07:41:09.870Z,4.03
2023-04-12T07:43:37.804Z,4.30
2023-04-12T07:46:08.945Z,4.45
2023-04-12T07:48:37.298Z,5.85
2023-04-12T07:51:06.137Z,2.67
2023-04-12T07:53:39.003Z,3.35
2023-04-12T07:56:07.320Z,3.17
2023-04-12T07:58:35.686Z,3.88
2023-04-12T08:01:03.889Z,5.70
2023-04-12T08:03:32.079Z,2.53
2023-04-12T08:06:00.535Z,2.58
2023-04-12T08:08:28.792Z,3.25
2023-04-12T08:10:56.820Z,2.75
2023-04-12T08:13:25.012Z,4.82
2023-04-12T08:15:53.207Z,4.65
2023-04-12T08:18:21.386Z,4.15
2023-04-12T08:20:49.520Z,1.70
2023-04-12T08:23:17.683Z,5.00
2023-04-12T08:25:46.285Z,3.08
2023-04-12T08:28:14.386Z,2.60
2023-04-12T08:30:43.069Z,2.63
2023-04-12T08:33:10.938Z,1.65
2023-04-12T08:35:40.571Z,2.17
2023-04-12T08:38:08.722Z,2.03
2023-04-12T08:40:36.779Z,2.28
2023-04-12T08:43:12.522Z,4.05
2023-04-12T08:45:41.004Z,2.70
2023-04-12T08:48:09.706Z,2.22
2023-04-12T08:50:37.760Z,1.80
2023-04-12T08:53:05.728Z,2.20
2023-04-12T08:55:33.757Z,5.55
2023-04-12T08:58:04.140Z,1.58
2023-04-12T09:00:32.251Z,2.42
2023-04-12T09:03:00.669Z,1.33
2023-04-12T09:05:32.066Z,3.70
2023-04-12T09:08:00.371Z,2.15
2023-04-12T09:10:38.703Z,3.20
2023-04-12T09:13:07.492Z,1.55
2023-04-12T09:15:36.959Z,4.05
2023-04-12T09:18:10.330Z,1.80
2023-04-12T09:20:39.283Z,4.03
2023-04-12T09:23:21.803Z,2.92
2023-04-12T09:25:53.068Z,1.70
2023-04-12T09:28:26.558Z,1.75
2023-04-12T09:30:55.733Z,2.65
2023-04-12T09:33:37.349Z,1.58
2023-04-12T09:36:14.660Z,3.97
2023-04-12T09:39:00.392Z,1.80
2023-04-12T09:41:30.889Z,2.08
2023-04-12T09:44:05.601Z,3.23
2023-04-12T09:46:34.139Z,3.67
2023-04-12T09:49:03.634Z,2.60
2023-04-12T09:51:34.109Z,2.25
2023-04-12T09:54:04.699Z,2.03
2023-04-12T09:56:34.502Z,1.48
2023-04-12T09:59:05.563Z,2.22
2023-04-12T10:01:40.935Z,2.28
2023-04-12T10:04:11.429Z,3.50
2023-04-12T10:06:41.841Z,1.38
2023-04-12T10:09:10.116Z,4.82
2023-04-12T10:11:42.223Z,2.45
2023-04-12T10:14:12.153Z,3.58
2023-04-12T10:16:42.414Z,2.83
2023-04-12T10:19:10.487Z,2.17
2023-04-12T10:21:41.486Z,2.25
2023-04-12T10:24:10.885Z,1.75
2023-04-12T10:26:44.146Z,2.78
2023-04-12T10:29:37.432Z,3.10
2023-04-12T10:32:23.230Z,2.40
2023-04-12T10:35:00.950Z,2.45
2023-04-12T10:38:03.334Z,3.92
2023-04-12T10:40:36.015Z,2.13
2023-04-12T10:43:22.953Z,4.63
2023-04-12T10:45:51.628Z,2.10
2023-04-12T10:48:38.745Z,1.42
2023-04-12T10:51:29.417Z,2.20
2023-04-12T10:54:17.862Z,3.25
2023-04-12T10:56:47.269Z,1.10
2023-04-12T10:59:27.073Z,3.28
2023-04-12T11:02:12.185Z,1.80
2023-04-12T11:05:10.521Z,1.00
2023-04-12T11:07:57.368Z,1.40
2023-04-12T11:10:42.641Z,0.95
2023-04-12T11:13:17.657Z,1.92
2023-04-12T11:15:45.761Z,0.93
2023-04-12T11:18:14.467Z,1.50
2023-04-12T11:20:43.248Z,2.58
2023-04-12T11:23:12.645Z,2.38
2023-04-12T11:25:41.191Z,2.92
2023-04-12T11:28:25.220Z,1.70
2023-04-12T11:30:57.201Z,1.73
2023-04-12T11:33:38.149Z,0.98
2023-04-12T11:36:07.854Z,1.40
2023-04-12T11:38:39.406Z,1.02
2023-04-12T11:43:39.075Z,0.85
2023-04-12T11:46:08.193Z,2.42
2023-04-12T11:48:39.054Z,1.88
2023-04-12T11:51:25.525Z,1.00
2023-04-12T11:53:54.613Z,1.00
2023-04-12T11:56:23.034Z,1.35
2023-04-12T11:58:54.325Z,1.65
2023-04-12T12:01:23.564Z,1.08
2023-04-12T12:03:52.103Z,1.27
2023-04-12T12:06:21.336Z,2.58
2023-04-12T12:08:53.408Z,1.00
2023-04-12T12:11:24.573Z,1.65
2023-04-12T12:14:01.913Z,0.68
2023-04-12T12:16:31.610Z,0.65
2023-04-12T12:19:00.348Z,1.00
2023-04-12T12:21:28.819Z,1.77
2023-04-12T12:23:58.212Z,2.35
2023-04-12T12:26:28.569Z,1.15
2023-04-12T12:28:58.070Z,1.48
2023-04-12T12:31:28.383Z,1.35
2023-04-12T12:33:59.021Z,2.38
2023-04-12T12:36:34.678Z,1.63
2023-04-12T12:39:11.773Z,1.90
2023-04-12T12:41:42.484Z,1.35
2023-04-12T12:44:11.610Z,1.17
2023-04-12T12:46:53.617Z,1.17
2023-04-12T12:49:24.058Z,1.13
2023-04-12T12:51:52.378Z,0.75
2023-04-12T12:54:38.835Z,1.58
2023-04-12T12:57:08.969Z,0.82
2023-04-12T12:59:37.115Z,1.08
2023-04-12T13:02:06.137Z,0.63
2023-04-12T13:04:34.722Z,0.70
2023-04-12T13:07:08.140Z,1.65
2023-04-12T13:09:36.757Z,1.55
2023-04-12T13:12:04.993Z,0.80
2023-04-12T13:14:32.922Z,1.30
2023-04-12T13:17:00.856Z,1.08
2023-04-12T13:19:28.759Z,1.02
2023-04-12T13:21:57.212Z,1.05
2023-04-12T13:24:25.350Z,1.52
2023-04-12T13:26:53.558Z,1.20
2023-04-12T13:29:21.760Z,0.50
2023-04-12T13:31:50.242Z,2.92
2023-04-12T13:34:18.299Z,1.13
2023-04-12T13:36:47.126Z,0.60
2023-04-12T13:39:15.574Z,1.83
2023-04-12T13:41:44.011Z,0.60
2023-04-12T13:44:12.214Z,1.75
2023-04-12T13:46:40.366Z,1.65
2023-04-12T13:49:08.210Z,0.82
2023-04-12T13:51:36.202Z,0.68
2023-04-12T13:54:04.391Z,0.93
2023-04-12T13:56:32.446Z,0.70
2023-04-12T13:59:00.985Z,0.80
2023-04-12T14:01:29.368Z,1.42
2023-04-12T14:03:59.448Z,1.17
2023-04-12T14:06:27.653Z,1.50
2023-04-12T14:08:56.082Z,1.45
2023-04-12T14:11:25.324Z,1.27
2023-04-12T14:13:59.715Z,0.93
2023-04-12T14:16:28.307Z,0.95
2023-04-12T14:18:56.617Z,0.90
2023-04-12T14:21:29.338Z,1.20
2023-04-12T14:24:00.917Z,0.70
2023-04-12T14:26:28.893Z,1.15
2023-04-12T14:28:57.166Z,0.80
2023-04-12T14:31:25.877Z,1.25
2023-04-12T14:33:54.180Z,0.65
2023-04-12T14:36:22.431Z,1.88
2023-04-12T14:38:53.725Z,0.95
2023-04-12T14:41:21.937Z,1.02
2023-04-12T14:43:50.636Z,1.00
2023-04-12T14:46:19.136Z,0.70
2023-04-12T14:48:50.212Z,0.70
2023-04-12T14:51:18.588Z,0.80
2023-04-12T14:53:46.872Z,1.00
2023-04-12T14:56:23.946Z,0.63
2023-04-12T14:58:56.357Z,1.17
2023-04-12T15:03:54.171Z,1.35
2023-04-12T15:06:24.219Z,1.35
2023-04-12T15:08:55.235Z,0.93
2023-04-12T15:11:27.599Z,0.90
2023-04-12T15:13:56.335Z,1.63
2023-04-12T15:16:24.638Z,2.60
2023-04-12T15:18:52.788Z,0.88
2023-04-12T15:21:21.366Z,0.90
2023-04-12T15:23:49.450Z,2.28
2023-04-12T15:26:17.932Z,1.15
2023-04-12T15:28:46.656Z,0.90
2023-04-12T15:31:15.082Z,0.90
2023-04-12T15:33:47.483Z,0.60
2023-04-12T15:36:16.878Z,0.60
2023-04-12T15:38:45.099Z,0.65
2023-04-12T15:41:12.974Z,0.98
2023-04-12T15:43:42.450Z,0.95
2023-04-12T15:46:10.803Z,1.10
2023-04-12T15:48:39.212Z,0.93
2023-04-12T15:51:08.001Z,1.02
2023-04-12T15:53:36.340Z,1.15
2023-04-12T15:56:04.853Z,1.20
2023-04-12T15:58:33.002Z,1.17
2023-04-12T16:01:01.242Z,0.85
2023-04-12T16:03:29.369Z,0.70
2023-04-12T16:05:57.993Z,1.00
2023-04-12T16:08:27.816Z,1.52
2023-04-12T16:10:55.983Z,0.82
2023-04-12T16:13:24.519Z,1.20
2023-04-12T16:15:52.905Z,1.00
2023-04-12T16:18:20.856Z,1.58
2023-04-12T16:20:48.736Z,1.30
2023-04-12T16:23:17.086Z,1.65
2023-04-12T16:25:45.196Z,1.42
2023-04-12T16:28:14.713Z,0.88
2023-04-12T16:30:42.856Z,1.08
2023-04-12T16:33:11.369Z,1.10
2023-04-12T16:35:41.243Z,1.65
2023-04-12T16:38:11.189Z,1.20
2023-04-12T16:40:39.922Z,1.52
2023-04-12T16:43:08.814Z,2.13
2023-04-12T16:45:37.613Z,1.48
2023-04-12T16:48:06.249Z,1.20
2023-04-12T16:50:34.534Z,1.30
2023-04-12T16:53:02.714Z,2.10
2023-04-12T16:55:33.695Z,1.77
2023-04-12T16:58:02.261Z,2.17
2023-04-12T17:00:32.816Z,1.45
2023-04-12T17:03:01.138Z,1.40
2023-04-12T17:05:29.253Z,1.20
2023-04-12T17:07:57.785Z,1.15
2023-04-12T17:10:27.539Z,1.05
2023-04-12T17:13:00.178Z,1.20
2023-04-12T17:15:29.572Z,1.23
2023-04-12T17:18:05.911Z,1.85
2023-04-12T17:20:39.172Z,1.42
2023-04-12T17:23:08.142Z,1.45
2023-04-12T17:25:36.938Z,1.85
2023-04-12T17:28:05.346Z,1.63
2023-04-12T17:30:33.821Z,2.30
2023-04-12T17:33:04.510Z,1.20
2023-04-12T17:35:32.809Z,2.85
2023-04-12T17:38:01.056Z,1.55
2023-04-12T17:40:29.526Z,2.83
2023-04-12T17:42:57.606Z,1.73
2023-04-12T17:45:26.262Z,3.08
2023-04-12T17:47:55.058Z,1.60
2023-04-12T17:50:27.573Z,2.45
2023-04-12T17:52:56.037Z,1.52
2023-04-12T17:55:24.978Z,1.50
2023-04-12T17:57:53.426Z,1.30
2023-04-12T18:00:23.667Z,2.15
2023-04-12T18:02:52.368Z,2.25
2023-04-12T18:05:20.839Z,2.38
2023-04-12T18:07:50.254Z,2.95
2023-04-12T18:10:21.329Z,1.50
2023-04-12T18:12:52.178Z,1.80
2023-04-12T18:15:20.566Z,2.15
2023-04-12T18:17:48.838Z,1.65
2023-04-12T18:20:17.598Z,2.30
2023-04-12T18:22:46.199Z,1.80
2023-04-12T18:25:14.475Z,1.98
2023-04-12T18:27:42.734Z,2.58
2023-04-12T18:30:10.928Z,3.03
2023-04-12T18:32:39.141Z,3.55
2023-04-12T18:35:08.187Z,1.70
2023-04-12T18:37:37.515Z,1.95
2023-04-12T18:40:09.954Z,2.92
2023-04-12T18:42:38.137Z,1.50
2023-04-12T18:45:06.594Z,1.15
2023-04-12T18:47:34.629Z,1.10
2023-04-12T18:50:02.866Z,0.82
2023-04-12T18:52:31.156Z,0.75
2023-04-12T18:55:02.366Z,1.38
2023-04-12T18:57:31.087Z,0.52
2023-04-12T18:59:59.277Z,0.50
2023-04-12T19:02:28.799Z,0.60
2023-04-12T19:04:57.092Z,1.13
2023-04-12T19:07:25.440Z,1.55
2023-04-12T19:09:54.631Z,1.20
2023-04-12T19:12:22.816Z,2.05
2023-04-12T19:14:51.402Z,0.50
2023-04-12T19:17:28.021Z,0.60
2023-04-12T19:19:56.894Z,0.50
2023-04-12T19:22:28.266Z,0.73
2023-04-12T19:24:56.392Z,0.40
2023-04-12T19:27:24.461Z,0.63
2023-04-12T19:29:56.444Z,1.42
2023-04-12T19:32:24.653Z,0.50
2023-04-12T19:34:52.773Z,0.50
2023-04-12T19:37:21.709Z,0.88
2023-04-12T19:39:52.747Z,0.57
2023-04-12T19:42:21.615Z,0.40
2023-04-12T19:44:50.887Z,0.40
2023-04-12T19:47:19.299Z,0.80
2023-04-12T19:49:47.886Z,0.40
2023-04-12T19:52:16.393Z,1.98
2023-04-12T19:54:47.529Z,1.95
2023-04-12T19:57:15.594Z,4.47
2023-04-12T19:59:43.609Z,4.38
2023-04-12T20:02:11.838Z,2.95
2023-04-12T20:04:40.484Z,5.20
2023-04-12T20:07:08.964Z,3.88
2023-04-12T20:09:37.487Z,3.72
2023-04-12T20:12:06.974Z,6.35
2023-04-12T20:14:37.335Z,4.43
2023-04-12T20:17:06.378Z,4.70
2023-04-12T20:19:34.637Z,4.68
2023-04-12T20:22:03.646Z,4.38
2023-04-12T20:24:34.735Z,3.90
2023-04-12T20:27:04.002Z,5.22
2023-04-12T20:29:34.956Z,4.38
2023-04-12T20:32:07.051Z,6.15
2023-04-12T20:34:35.164Z,3.45
2023-04-12T20:37:05.732Z,7.55
2023-04-12T20:39:35.809Z,6.35
2023-04-12T20:42:03.903Z,4.18
2023-04-12T20:44:32.085Z,3.53
2023-04-12T20:47:00.342Z,3.30
2023-04-12T20:49:30.388Z,4.38
2023-04-12T20:51:59.517Z,3.15
2023-04-12T20:54:30.419Z,6.72
2023-04-12T20:57:04.377Z,3.42
2023-04-12T20:59:36.184Z,2.80
2023-04-12T21:02:04.774Z,2.90
2023-04-12T21:04:36.460Z,6.00
2023-04-12T21:07:05.318Z,1.88
2023-04-12T21:09:34.330Z,2.83
2023-04-12T21:12:06.399Z,2.22
2023-04-12T21:14:35.319Z,2.55
2023-04-12T21:17:07.462Z,2.45
2023-04-12T21:19:42.115Z,3.40
2023-04-12T21:22:10.531Z,2.85
2023-04-12T21:24:38.705Z,4.07
2023-04-12T21:27:07.976Z,3.58
2023-04-12T21:29:41.621Z,3.50
2023-04-12T21:32:10.001Z,3.33
2023-04-12T21:34:38.829Z,3.83
2023-04-12T21:37:06.906Z,3.75
2023-04-12T21:39:35.072Z,3.35
2023-04-12T21:42:03.730Z,2.70
2023-04-12T21:44:32.036Z,3.13
2023-04-12T21:47:00.470Z,3.33
2023-04-12T21:49:30.362Z,2.78
2023-04-12T21:51:59.470Z,2.63
2023-04-12T21:54:29.194Z,2.67
2023-04-12T21:56:57.958Z,2.40
2023-04-12T21:59:27.121Z,3.08
2023-04-12T22:01:55.644Z,2.15
2023-04-12T22:04:23.760Z,2.28
2023-04-12T22:06:53.303Z,2.05
2023-04-12T22:09:26.014Z,1.77
2023-04-12T22:11:57.222Z,3.13
2023-04-12T22:14:27.246Z,5.28
2023-04-12T22:16:55.874Z,2.17
2023-04-12T22:19:23.991Z,2.33
2023-04-12T22:21:52.642Z,2.40
2023-04-12T22:24:21.621Z,1.83
2023-04-12T22:26:49.847Z,2.80
2023-04-12T22:29:17.857Z,2.53
2023-04-12T22:31:51.607Z,3.83
2023-04-12T22:34:20.061Z,2.70
2023-04-12T22:36:52.474Z,3.53
2023-04-12T22:39:23.151Z,3.40
2023-04-12T22:41:53.519Z,3.03
2023-04-12T22:44:26.075Z,1.55
2023-04-12T22:46:55.085Z,1.85
2023-04-12T22:49:31.333Z,3.90
2023-04-12T22:51:59.716Z,1.58
2023-04-12T22:54:27.669Z,3.75
2023-04-12T22:56:55.740Z,2.38
2023-04-12T22:59:26.729Z,4.78
2023-04-12T23:01:55.107Z,2.40
2023-04-12T23:04:23.345Z,2.58
2023-04-12T23:06:56.988Z,2.47
2023-04-12T23:09:28.872Z,3.42
2023-04-12T23:11:59.752Z,2.88
2023-04-12T23:14:27.778Z,4.32
2023-04-12T23:16:57.384Z,2.17
2023-04-12T23:19:28.916Z,2.25
2023-04-12T23:21:57.759Z,2.55
2023-04-12T23:24:26.239Z,2.33
2023-04-12T23:26:57.962Z,1.55
2023-04-12T23:29:26.373Z,2.13
2023-04-12T23:31:56.069Z,2.00
2023-04-12T23:34:24.069Z,3.10
2023-04-12T23:36:52.531Z,2.13
2023-04-12T23:39:23.089Z,5.78
2023-04-12T23:41:52.066Z,2.03
2023-04-12T23:44:20.367Z,3.58
2023-04-12T23:46:48.665Z,2.15
2023-04-12T23:49:16.922Z,5.20
2023-04-12T23:51:45.206Z,2.45
2023-04-12T23:54:13.381Z,3.25
2023-04-12T23:56:41.642Z,4.43
2023-04-12T23:59:09.976Z,2.75
